sensor_id;sensor_type;location;lat;lon;timestamp;P1;durP1;ratioP1;P2;durP2;ratioP2
4323;SDS011;2175;51.018;6.994;2023-06-10T00:00:38;10.87;;;9.67;;
4323;SDS011;2175;51.018;6.994;2023-06-10T00:03:06;10.63;;;9.53;;
4323;SDS011;2175;51.018;6.994;2023-06-10T00:05:33;13.43;;;10.20;;
4323;SDS011;2175;51.018;6.994;2023-06-10T00:07:59;16.43;;;9.50;;
4323;SDS011;2175;51.018;6.994;2023-06-10T00:10:26;11.60;;;9.73;;
4323;SDS011;2175;51.018;6.994;2023-06-10T00:12:52;11.57;;;9.67;;
4323;SDS011;2175;51.018;6.994;2023-06-10T00:15:17;11.93;;;10.10;;
4323;SDS011;2175;51.018;6.994;2023-06-10T00:17:43;12.43;;;9.10;;
4323;SDS011;2175;51.018;6.994;2023-06-10T00:20:09;13.47;;;9.90;;
4323;SDS011;2175;51.018;6.994;2023-06-10T00:22:38;11.30;;;10.17;;
4323;SDS011;2175;51.018;6.994;2023-06-10T00:25:05;12.13;;;9.27;;
4323;SDS011;2175;51.018;6.994;2023-06-10T00:27:31;15.50;;;9.90;;
4323;SDS011;2175;51.018;6.994;2023-06-10T00:30:03;11.60;;;10.40;;
4323;SDS011;2175;51.018;6.994;2023-06-10T00:32:31;11.87;;;9.87;;
4323;SDS011;2175;51.018;6.994;2023-06-10T00:34:58;10.63;;;9.53;;
4323;SDS011;2175;51.018;6.994;2023-06-10T00:37:23;10.67;;;9.57;;
4323;SDS011;2175;51.018;6.994;2023-06-10T00:39:49;11.10;;;10.00;;
4323;SDS011;2175;51.018;6.994;2023-06-10T00:42:14;10.33;;;9.30;;
4323;SDS011;2175;51.018;6.994;2023-06-10T00:44:40;11.20;;;9.30;;
4323;SDS011;2175;51.018;6.994;2023-06-10T00:47:06;11.90;;;9.40;;
4323;SDS011;2175;51.018;6.994;2023-06-10T00:49:34;10.63;;;9.10;;
4323;SDS011;2175;51.018;6.994;2023-06-10T00:52:01;11.73;;;9.97;;
4323;SDS011;2175;51.018;6.994;2023-06-10T00:54:28;12.30;;;10.20;;
4323;SDS011;2175;51.018;6.994;2023-06-10T00:56:54;10.20;;;9.20;;
4323;SDS011;2175;51.018;6.994;2023-06-10T00:59:20;10.87;;;9.70;;
4323;SDS011;2175;51.018;6.994;2023-06-10T01:01:46;12.13;;;10.20;;
4323;SDS011;2175;51.018;6.994;2023-06-10T01:04:15;13.13;;;10.50;;
4323;SDS011;2175;51.018;6.994;2023-06-10T01:06:50;11.73;;;9.80;;
4323;SDS011;2175;51.018;6.994;2023-06-10T01:14:41;15.73;;;10.53;;
4323;SDS011;2175;51.018;6.994;2023-06-10T01:17:10;12.97;;;10.03;;
4323;SDS011;2175;51.018;6.994;2023-06-10T01:19:36;11.13;;;9.73;;
4323;SDS011;2175;51.018;6.994;2023-06-10T01:22:02;12.77;;;10.50;;
4323;SDS011;2175;51.018;6.994;2023-06-10T01:24:29;14.53;;;11.30;;
4323;SDS011;2175;51.018;6.994;2023-06-10T01:27:00;11.40;;;9.27;;
4323;SDS011;2175;51.018;6.994;2023-06-10T01:29:31;12.80;;;10.13;;
4323;SDS011;2175;51.018;6.994;2023-06-10T01:32:34;15.30;;;10.00;;
4323;SDS011;2175;51.018;6.994;2023-06-10T01:35:03;12.60;;;10.37;;
4323;SDS011;2175;51.018;6.994;2023-06-10T01:37:31;14.83;;;10.03;;
4323;SDS011;2175;51.018;6.994;2023-06-10T01:39:59;11.73;;;10.53;;
4323;SDS011;2175;51.018;6.994;2023-06-10T01:42:28;14.43;;;10.77;;
4323;SDS011;2175;51.018;6.994;2023-06-10T01:44:54;13.40;;;10.53;;
4323;SDS011;2175;51.018;6.994;2023-06-10T01:47:20;13.50;;;11.20;;
4323;SDS011;2175;51.018;6.994;2023-06-10T01:49:46;15.47;;;11.07;;
4323;SDS011;2175;51.018;6.994;2023-06-10T01:52:11;13.83;;;10.57;;
4323;SDS011;2175;51.018;6.994;2023-06-10T01:54:37;11.63;;;10.10;;
4323;SDS011;2175;51.018;6.994;2023-06-10T01:57:03;14.50;;;10.90;;
4323;SDS011;2175;51.018;6.994;2023-06-10T01:59:31;12.87;;;11.10;;
4323;SDS011;2175;51.018;6.994;2023-06-10T02:01:56;11.97;;;10.70;;
4323;SDS011;2175;51.018;6.994;2023-06-10T02:04:22;15.27;;;11.30;;
4323;SDS011;2175;51.018;6.994;2023-06-10T02:06:48;13.33;;;10.57;;
4323;SDS011;2175;51.018;6.994;2023-06-10T02:09:13;12.27;;;9.73;;
4323;SDS011;2175;51.018;6.994;2023-06-10T02:11:39;12.13;;;10.83;;
4323;SDS011;2175;51.018;6.994;2023-06-10T02:14:05;11.90;;;10.60;;
4323;SDS011;2175;51.018;6.994;2023-06-10T02:16:30;10.63;;;9.47;;
4323;SDS011;2175;51.018;6.994;2023-06-10T02:18:56;13.53;;;10.53;;
4323;SDS011;2175;51.018;6.994;2023-06-10T02:21:22;15.40;;;11.40;;
4323;SDS011;2175;51.018;6.994;2023-06-10T02:23:48;14.00;;;11.10;;
4323;SDS011;2175;51.018;6.994;2023-06-10T02:26:14;13.30;;;10.60;;
4323;SDS011;2175;51.018;6.994;2023-06-10T02:28:42;12.77;;;11.03;;
4323;SDS011;2175;51.018;6.994;2023-06-10T02:31:08;11.70;;;10.50;;
4323;SDS011;2175;51.018;6.994;2023-06-10T02:33:34;14.47;;;11.23;;
4323;SDS011;2175;51.018;6.994;2023-06-10T02:35:59;12.40;;;11.20;;
4323;SDS011;2175;51.018;6.994;2023-06-10T02:38:25;13.50;;;11.00;;
4323;SDS011;2175;51.018;6.994;2023-06-10T02:40:51;14.93;;;11.87;;
4323;SDS011;2175;51.018;6.994;2023-06-10T02:43:16;13.60;;;11.80;;
4323;SDS011;2175;51.018;6.994;2023-06-10T02:45:42;12.30;;;10.93;;
4323;SDS011;2175;51.018;6.994;2023-06-10T02:48:07;15.10;;;12.40;;
4323;SDS011;2175;51.018;6.994;2023-06-10T02:50:33;13.87;;;11.87;;
4323;SDS011;2175;51.018;6.994;2023-06-10T02:52:58;14.83;;;11.50;;
4323;SDS011;2175;51.018;6.994;2023-06-10T02:55:24;14.63;;;11.77;;
4323;SDS011;2175;51.018;6.994;2023-06-10T02:57:51;14.13;;;11.70;;
4323;SDS011;2175;51.018;6.994;2023-06-10T03:00:19;14.90;;;11.50;;
4323;SDS011;2175;51.018;6.994;2023-06-10T03:02:45;13.57;;;11.67;;
4323;SDS011;2175;51.018;6.994;2023-06-10T03:05:11;12.43;;;11.23;;
4323;SDS011;2175;51.018;6.994;2023-06-10T03:07:38;13.20;;;11.80;;
4323;SDS011;2175;51.018;6.994;2023-06-10T03:10:04;13.63;;;12.13;;
4323;SDS011;2175;51.018;6.994;2023-06-10T03:12:31;13.20;;;11.67;;
4323;SDS011;2175;51.018;6.994;2023-06-10T03:14:56;12.83;;;11.53;;
4323;SDS011;2175;51.018;6.994;2023-06-10T03:17:23;14.30;;;12.30;;
4323;SDS011;2175;51.018;6.994;2023-06-10T03:19:49;14.90;;;12.47;;
4323;SDS011;2175;51.018;6.994;2023-06-10T03:22:15;14.63;;;12.67;;
4323;SDS011;2175;51.018;6.994;2023-06-10T03:24:41;13.90;;;11.13;;
4323;SDS011;2175;51.018;6.994;2023-06-10T03:27:11;16.20;;;12.10;;
4323;SDS011;2175;51.018;6.994;2023-06-10T03:29:38;16.67;;;12.90;;
4323;SDS011;2175;51.018;6.994;2023-06-10T03:32:04;19.70;;;12.87;;
4323;SDS011;2175;51.018;6.994;2023-06-10T03:34:30;19.67;;;12.03;;
4323;SDS011;2175;51.018;6.994;2023-06-10T03:36:56;17.00;;;11.97;;
4323;SDS011;2175;51.018;6.994;2023-06-10T03:39:22;15.40;;;11.80;;
4323;SDS011;2175;51.018;6.994;2023-06-10T03:41:48;15.37;;;12.43;;
4323;SDS011;2175;51.018;6.994;2023-06-10T03:44:14;15.97;;;12.00;;
4323;SDS011;2175;51.018;6.994;2023-06-10T03:46:40;13.27;;;11.87;;
4323;SDS011;2175;51.018;6.994;2023-06-10T03:49:06;18.10;;;13.00;;
4323;SDS011;2175;51.018;6.994;2023-06-10T03:51:31;17.70;;;12.87;;
4323;SDS011;2175;51.018;6.994;2023-06-10T03:53:57;15.10;;;12.90;;
4323;SDS011;2175;51.018;6.994;2023-06-10T03:56:22;14.53;;;12.53;;
4323;SDS011;2175;51.018;6.994;2023-06-10T03:58:48;13.60;;;12.17;;
4323;SDS011;2175;51.018;6.994;2023-06-10T04:01:14;16.90;;;12.07;;
4323;SDS011;2175;51.018;6.994;2023-06-10T04:03:39;16.67;;;13.43;;
4323;SDS011;2175;51.018;6.994;2023-06-10T04:06:06;16.83;;;13.87;;
4323;SDS011;2175;51.018;6.994;2023-06-10T04:08:32;15.20;;;13.60;;
4323;SDS011;2175;51.018;6.994;2023-06-10T04:10:58;19.00;;;14.23;;
4323;SDS011;2175;51.018;6.994;2023-06-10T04:13:24;15.70;;;14.10;;
4323;SDS011;2175;51.018;6.994;2023-06-10T04:15:49;15.60;;;13.23;;
4323;SDS011;2175;51.018;6.994;2023-06-10T04:18:15;16.20;;;13.80;;
4323;SDS011;2175;51.018;6.994;2023-06-10T04:20:41;19.70;;;15.23;;
4323;SDS011;2175;51.018;6.994;2023-06-10T04:23:07;16.07;;;13.53;;
4323;SDS011;2175;51.018;6.994;2023-06-10T04:25:33;16.37;;;14.67;;
4323;SDS011;2175;51.018;6.994;2023-06-10T04:27:58;17.00;;;14.70;;
4323;SDS011;2175;51.018;6.994;2023-06-10T04:30:24;16.53;;;14.43;;
4323;SDS011;2175;51.018;6.994;2023-06-10T04:32:50;16.53;;;14.37;;
4323;SDS011;2175;51.018;6.994;2023-06-10T04:35:15;18.17;;;14.20;;
4323;SDS011;2175;51.018;6.994;2023-06-10T04:37:41;16.10;;;14.00;;
4323;SDS011;2175;51.018;6.994;2023-06-10T04:40:08;19.37;;;14.77;;
4323;SDS011;2175;51.018;6.994;2023-06-10T04:42:34;21.40;;;14.53;;
4323;SDS011;2175;51.018;6.994;2023-06-10T04:45:00;16.87;;;14.87;;
4323;SDS011;2175;51.018;6.994;2023-06-10T04:47:26;18.77;;;14.30;;
4323;SDS011;2175;51.018;6.994;2023-06-10T04:49:53;21.40;;;15.20;;
4323;SDS011;2175;51.018;6.994;2023-06-10T04:52:18;18.13;;;15.20;;
4323;SDS011;2175;51.018;6.994;2023-06-10T04:54:44;18.80;;;15.83;;
4323;SDS011;2175;51.018;6.994;2023-06-10T04:57:10;16.77;;;14.93;;
4323;SDS011;2175;51.018;6.994;2023-06-10T04:59:36;17.70;;;15.33;;
4323;SDS011;2175;51.018;6.994;2023-06-10T05:02:05;17.50;;;15.17;;
4323;SDS011;2175;51.018;6.994;2023-06-10T05:04:31;16.63;;;14.60;;
4323;SDS011;2175;51.018;6.994;2023-06-10T05:06:57;17.80;;;14.93;;
4323;SDS011;2175;51.018;6.994;2023-06-10T05:09:22;18.93;;;15.70;;
4323;SDS011;2175;51.018;6.994;2023-06-10T05:11:48;16.97;;;15.17;;
4323;SDS011;2175;51.018;6.994;2023-06-10T05:14:14;17.70;;;15.03;;
4323;SDS011;2175;51.018;6.994;2023-06-10T05:16:44;17.00;;;15.20;;
4323;SDS011;2175;51.018;6.994;2023-06-10T05:19:09;16.87;;;15.07;;
4323;SDS011;2175;51.018;6.994;2023-06-10T05:21:35;17.10;;;14.00;;
4323;SDS011;2175;51.018;6.994;2023-06-10T05:24:00;16.80;;;15.00;;
4323;SDS011;2175;51.018;6.994;2023-06-10T05:26:26;17.20;;;14.17;;
4323;SDS011;2175;51.018;6.994;2023-06-10T05:28:51;17.00;;;15.00;;
4323;SDS011;2175;51.018;6.994;2023-06-10T05:31:17;17.67;;;15.77;;
4323;SDS011;2175;51.018;6.994;2023-06-10T05:33:43;16.43;;;14.07;;
4323;SDS011;2175;51.018;6.994;2023-06-10T05:36:08;15.80;;;13.83;;
4323;SDS011;2175;51.018;6.994;2023-06-10T05:38:34;15.07;;;13.57;;
4323;SDS011;2175;51.018;6.994;2023-06-10T05:41:00;17.40;;;14.03;;
4323;SDS011;2175;51.018;6.994;2023-06-10T05:43:25;16.90;;;14.43;;
4323;SDS011;2175;51.018;6.994;2023-06-10T05:45:51;19.00;;;14.83;;
4323;SDS011;2175;51.018;6.994;2023-06-10T05:48:17;15.63;;;14.03;;
4323;SDS011;2175;51.018;6.994;2023-06-10T05:50:43;16.03;;;13.87;;
4323;SDS011;2175;51.018;6.994;2023-06-10T05:53:13;16.00;;;13.83;;
4323;SDS011;2175;51.018;6.994;2023-06-10T05:55:44;15.27;;;13.67;;
4323;SDS011;2175;51.018;6.994;2023-06-10T05:58:11;15.80;;;12.40;;
4323;SDS011;2175;51.018;6.994;2023-06-10T06:00:40;16.03;;;13.73;;
4323;SDS011;2175;51.018;6.994;2023-06-10T06:03:09;17.23;;;14.30;;
4323;SDS011;2175;51.018;6.994;2023-06-10T06:05:35;17.20;;;14.33;;
4323;SDS011;2175;51.018;6.994;2023-06-10T06:08:02;19.33;;;15.30;;
4323;SDS011;2175;51.018;6.994;2023-06-10T06:10:31;19.80;;;14.27;;
4323;SDS011;2175;51.018;6.994;2023-06-10T06:12:57;22.10;;;14.60;;
4323;SDS011;2175;51.018;6.994;2023-06-10T06:15:23;16.30;;;14.60;;
4323;SDS011;2175;51.018;6.994;2023-06-10T06:17:48;16.13;;;14.33;;
4323;SDS011;2175;51.018;6.994;2023-06-10T06:20:15;16.00;;;12.90;;
4323;SDS011;2175;51.018;6.994;2023-06-10T06:22:41;13.63;;;12.23;;
4323;SDS011;2175;51.018;6.994;2023-06-10T06:25:07;12.57;;;11.27;;
4323;SDS011;2175;51.018;6.994;2023-06-10T06:27:32;19.63;;;10.83;;
4323;SDS011;2175;51.018;6.994;2023-06-10T06:29:58;12.27;;;9.60;;
4323;SDS011;2175;51.018;6.994;2023-06-10T06:32:24;12.97;;;8.90;;
4323;SDS011;2175;51.018;6.994;2023-06-10T06:34:52;9.90;;;8.90;;
4323;SDS011;2175;51.018;6.994;2023-06-10T06:37:21;11.87;;;9.37;;
4323;SDS011;2175;51.018;6.994;2023-06-10T06:39:48;13.13;;;9.23;;
4323;SDS011;2175;51.018;6.994;2023-06-10T06:42:18;11.23;;;9.40;;
4323;SDS011;2175;51.018;6.994;2023-06-10T06:44:44;10.57;;;8.67;;
4323;SDS011;2175;51.018;6.994;2023-06-10T06:47:10;11.50;;;9.23;;
4323;SDS011;2175;51.018;6.994;2023-06-10T06:49:35;10.13;;;9.13;;
4323;SDS011;2175;51.018;6.994;2023-06-10T06:52:01;13.00;;;9.80;;
4323;SDS011;2175;51.018;6.994;2023-06-10T06:54:27;11.37;;;9.63;;
4323;SDS011;2175;51.018;6.994;2023-06-10T06:56:53;11.17;;;10.00;;
4323;SDS011;2175;51.018;6.994;2023-06-10T06:59:18;11.60;;;9.70;;
4323;SDS011;2175;51.018;6.994;2023-06-10T07:01:44;10.33;;;8.53;;
4323;SDS011;2175;51.018;6.994;2023-06-10T07:04:11;14.63;;;9.70;;
4323;SDS011;2175;51.018;6.994;2023-06-10T07:06:36;10.00;;;8.70;;
4323;SDS011;2175;51.018;6.994;2023-06-10T07:09:03;11.40;;;9.37;;
4323;SDS011;2175;51.018;6.994;2023-06-10T07:11:29;14.73;;;9.27;;
4323;SDS011;2175;51.018;6.994;2023-06-10T07:13:55;10.67;;;8.50;;
4323;SDS011;2175;51.018;6.994;2023-06-10T07:16:21;10.27;;;8.60;;
4323;SDS011;2175;51.018;6.994;2023-06-10T07:18:47;14.43;;;8.73;;
4323;SDS011;2175;51.018;6.994;2023-06-10T07:21:13;10.60;;;8.63;;
4323;SDS011;2175;51.018;6.994;2023-06-10T07:23:41;10.17;;;8.20;;
4323;SDS011;2175;51.018;6.994;2023-06-10T07:26:07;10.50;;;8.40;;
4323;SDS011;2175;51.018;6.994;2023-06-10T07:28:35;11.43;;;8.93;;
4323;SDS011;2175;51.018;6.994;2023-06-10T07:31:01;12.63;;;8.60;;
4323;SDS011;2175;51.018;6.994;2023-06-10T07:33:27;8.80;;;7.83;;
4323;SDS011;2175;51.018;6.994;2023-06-10T07:35:53;11.30;;;8.17;;
4323;SDS011;2175;51.018;6.994;2023-06-10T07:38:18;10.53;;;8.27;;
4323;SDS011;2175;51.018;6.994;2023-06-10T07:40:44;14.63;;;8.30;;
4323;SDS011;2175;51.018;6.994;2023-06-10T07:43:10;11.40;;;8.00;;
4323;SDS011;2175;51.018;6.994;2023-06-10T07:45:35;9.50;;;7.77;;
4323;SDS011;2175;51.018;6.994;2023-06-10T07:48:01;11.87;;;7.80;;
4323;SDS011;2175;51.018;6.994;2023-06-10T07:50:26;11.23;;;8.53;;
4323;SDS011;2175;51.018;6.994;2023-06-10T07:52:52;10.97;;;7.77;;
4323;SDS011;2175;51.018;6.994;2023-06-10T07:55:18;10.80;;;8.47;;
4323;SDS011;2175;51.018;6.994;2023-06-10T07:57:43;12.17;;;8.43;;
4323;SDS011;2175;51.018;6.994;2023-06-10T08:00:09;11.07;;;8.30;;
4323;SDS011;2175;51.018;6.994;2023-06-10T08:02:35;10.73;;;8.10;;
4323;SDS011;2175;51.018;6.994;2023-06-10T08:05:01;9.40;;;8.23;;
4323;SDS011;2175;51.018;6.994;2023-06-10T08:07:27;12.03;;;8.80;;
4323;SDS011;2175;51.018;6.994;2023-06-10T08:09:52;11.63;;;8.17;;
4323;SDS011;2175;51.018;6.994;2023-06-10T08:12:18;11.53;;;8.27;;
4323;SDS011;2175;51.018;6.994;2023-06-10T08:14:44;12.90;;;9.13;;
4323;SDS011;2175;51.018;6.994;2023-06-10T08:17:10;9.77;;;7.93;;
4323;SDS011;2175;51.018;6.994;2023-06-10T08:19:36;14.70;;;8.00;;
4323;SDS011;2175;51.018;6.994;2023-06-10T08:22:01;12.53;;;8.20;;
4323;SDS011;2175;51.018;6.994;2023-06-10T08:24:27;9.90;;;7.80;;
4323;SDS011;2175;51.018;6.994;2023-06-10T08:26:52;9.80;;;8.63;;
4323;SDS011;2175;51.018;6.994;2023-06-10T08:29:18;10.90;;;8.37;;
4323;SDS011;2175;51.018;6.994;2023-06-10T08:31:44;9.07;;;7.13;;
4323;SDS011;2175;51.018;6.994;2023-06-10T08:34:10;9.63;;;8.33;;
4323;SDS011;2175;51.018;6.994;2023-06-10T08:36:36;9.47;;;8.47;;
4323;SDS011;2175;51.018;6.994;2023-06-10T08:39:02;9.27;;;7.97;;
4323;SDS011;2175;51.018;6.994;2023-06-10T08:41:28;9.13;;;7.47;;
4323;SDS011;2175;51.018;6.994;2023-06-10T08:44:11;8.50;;;7.23;;
4323;SDS011;2175;51.018;6.994;2023-06-10T08:46:43;11.50;;;8.07;;
4323;SDS011;2175;51.018;6.994;2023-06-10T08:49:10;9.80;;;7.77;;
4323;SDS011;2175;51.018;6.994;2023-06-10T08:51:47;7.73;;;7.03;;
4323;SDS011;2175;51.018;6.994;2023-06-10T08:54:17;8.13;;;7.33;;
4323;SDS011;2175;51.018;6.994;2023-06-10T08:56:45;12.17;;;6.90;;
4323;SDS011;2175;51.018;6.994;2023-06-10T08:59:14;7.60;;;6.70;;
4323;SDS011;2175;51.018;6.994;2023-06-10T09:01:41;8.43;;;7.33;;
4323;SDS011;2175;51.018;6.994;2023-06-10T09:04:08;12.80;;;7.40;;
4323;SDS011;2175;51.018;6.994;2023-06-10T09:06:34;9.77;;;7.27;;
4323;SDS011;2175;51.018;6.994;2023-06-10T09:09:01;10.73;;;6.50;;
4323;SDS011;2175;51.018;6.994;2023-06-10T09:11:27;8.00;;;6.53;;
4323;SDS011;2175;51.018;6.994;2023-06-10T09:13:53;8.07;;;6.90;;
4323;SDS011;2175;51.018;6.994;2023-06-10T09:16:19;8.03;;;7.13;;
4323;SDS011;2175;51.018;6.994;2023-06-10T09:18:45;7.50;;;6.67;;
4323;SDS011;2175;51.018;6.994;2023-06-10T09:21:10;12.30;;;8.27;;
4323;SDS011;2175;51.018;6.994;2023-06-10T09:23:36;7.63;;;6.90;;
4323;SDS011;2175;51.018;6.994;2023-06-10T09:26:02;7.10;;;6.10;;
4323;SDS011;2175;51.018;6.994;2023-06-10T09:28:33;13.50;;;6.93;;
4323;SDS011;2175;51.018;6.994;2023-06-10T09:31:05;7.93;;;6.77;;
4323;SDS011;2175;51.018;6.994;2023-06-10T09:33:32;7.77;;;6.00;;
4323;SDS011;2175;51.018;6.994;2023-06-10T09:36:02;6.83;;;6.00;;
4323;SDS011;2175;51.018;6.994;2023-06-10T09:38:32;9.13;;;6.63;;
4323;SDS011;2175;51.018;6.994;2023-06-10T09:40:58;8.90;;;5.93;;
4323;SDS011;2175;51.018;6.994;2023-06-10T09:43:38;7.10;;;6.10;;
4323;SDS011;2175;51.018;6.994;2023-06-10T09:46:05;7.73;;;6.83;;
4323;SDS011;2175;51.018;6.994;2023-06-10T09:48:34;9.40;;;6.60;;
4323;SDS011;2175;51.018;6.994;2023-06-10T09:51:01;8.23;;;6.00;;
4323;SDS011;2175;51.018;6.994;2023-06-10T09:53:26;10.03;;;6.20;;
4323;SDS011;2175;51.018;6.994;2023-06-10T09:55:52;6.97;;;6.37;;
4323;SDS011;2175;51.018;6.994;2023-06-10T09:58:18;8.40;;;6.23;;
4323;SDS011;2175;51.018;6.994;2023-06-10T10:00:58;8.60;;;6.57;;
4323;SDS011;2175;51.018;6.994;2023-06-10T10:03:23;9.10;;;6.40;;
4323;SDS011;2175;51.018;6.994;2023-06-10T10:05:49;9.13;;;5.80;;
4323;SDS011;2175;51.018;6.994;2023-06-10T10:08:22;7.00;;;6.00;;
4323;SDS011;2175;51.018;6.994;2023-06-10T10:10:48;7.83;;;7.03;;
4323;SDS011;2175;51.018;6.994;2023-06-10T10:13:15;8.60;;;6.47;;
4323;SDS011;2175;51.018;6.994;2023-06-10T10:15:41;10.90;;;6.53;;
4323;SDS011;2175;51.018;6.994;2023-06-10T10:18:08;6.80;;;6.20;;
4323;SDS011;2175;51.018;6.994;2023-06-10T10:20:47;9.00;;;6.73;;
4323;SDS011;2175;51.018;6.994;2023-06-10T10:23:24;10.90;;;6.27;;
4323;SDS011;2175;51.018;6.994;2023-06-10T10:25:56;8.47;;;6.90;;
4323;SDS011;2175;51.018;6.994;2023-06-10T10:28:25;8.30;;;7.20;;
4323;SDS011;2175;51.018;6.994;2023-06-10T10:31:02;9.10;;;6.50;;
4323;SDS011;2175;51.018;6.994;2023-06-10T10:36:23;7.90;;;6.47;;
4323;SDS011;2175;51.018;6.994;2023-06-10T10:38:48;8.37;;;6.20;;
4323;SDS011;2175;51.018;6.994;2023-06-10T10:41:14;7.00;;;5.87;;
4323;SDS011;2175;51.018;6.994;2023-06-10T10:43:43;6.93;;;5.57;;
4323;SDS011;2175;51.018;6.994;2023-06-10T10:46:14;9.13;;;6.60;;
4323;SDS011;2175;51.018;6.994;2023-06-10T10:48:41;9.13;;;5.70;;
4323;SDS011;2175;51.018;6.994;2023-06-10T10:51:07;7.97;;;6.80;;
4323;SDS011;2175;51.018;6.994;2023-06-10T10:53:33;6.83;;;5.83;;
4323;SDS011;2175;51.018;6.994;2023-06-10T10:56:07;9.03;;;6.17;;
4323;SDS011;2175;51.018;6.994;2023-06-10T10:58:37;8.77;;;6.07;;
4323;SDS011;2175;51.018;6.994;2023-06-10T11:01:11;6.70;;;6.10;;
4323;SDS011;2175;51.018;6.994;2023-06-10T11:03:44;10.40;;;5.97;;
4323;SDS011;2175;51.018;6.994;2023-06-10T11:06:12;9.33;;;6.13;;
4323;SDS011;2175;51.018;6.994;2023-06-10T11:11:25;7.43;;;6.10;;
4323;SDS011;2175;51.018;6.994;2023-06-10T11:16:29;10.23;;;6.53;;
4323;SDS011;2175;51.018;6.994;2023-06-10T11:18:55;8.33;;;6.07;;
4323;SDS011;2175;51.018;6.994;2023-06-10T11:21:25;11.27;;;6.13;;
4323;SDS011;2175;51.018;6.994;2023-06-10T11:23:51;8.03;;;6.13;;
4323;SDS011;2175;51.018;6.994;2023-06-10T11:33:58;7.57;;;6.07;;
4323;SDS011;2175;51.018;6.994;2023-06-10T11:36:26;7.67;;;5.93;;
4323;SDS011;2175;51.018;6.994;2023-06-10T11:38:54;8.70;;;5.83;;
4323;SDS011;2175;51.018;6.994;2023-06-10T11:41:38;16.30;;;8.30;;
4323;SDS011;2175;51.018;6.994;2023-06-10T11:44:08;7.57;;;6.50;;
4323;SDS011;2175;51.018;6.994;2023-06-10T11:46:38;7.63;;;6.40;;
4323;SDS011;2175;51.018;6.994;2023-06-10T11:49:04;9.73;;;6.70;;
4323;SDS011;2175;51.018;6.994;2023-06-10T11:51:35;6.90;;;6.20;;
4323;SDS011;2175;51.018;6.994;2023-06-10T11:54:02;11.13;;;7.43;;
4323;SDS011;2175;51.018;6.994;2023-06-10T11:56:29;7.47;;;6.67;;
4323;SDS011;2175;51.018;6.994;2023-06-10T11:58:56;9.97;;;6.60;;
4323;SDS011;2175;51.018;6.994;2023-06-10T12:01:24;6.63;;;6.03;;
4323;SDS011;2175;51.018;6.994;2023-06-10T12:04:00;7.83;;;6.70;;
4323;SDS011;2175;51.018;6.994;2023-06-10T12:06:37;12.27;;;6.47;;
4323;SDS011;2175;51.018;6.994;2023-06-10T12:09:04;7.60;;;6.80;;
4323;SDS011;2175;51.018;6.994;2023-06-10T12:11:30;9.50;;;6.40;;
4323;SDS011;2175;51.018;6.994;2023-06-10T12:13:56;7.33;;;5.97;;
4323;SDS011;2175;51.018;6.994;2023-06-10T12:16:22;7.67;;;6.60;;
4323;SDS011;2175;51.018;6.994;2023-06-10T12:18:47;13.33;;;6.57;;
4323;SDS011;2175;51.018;6.994;2023-06-10T12:21:20;8.30;;;6.30;;
4323;SDS011;2175;51.018;6.994;2023-06-10T12:24:05;6.97;;;6.00;;
4323;SDS011;2175;51.018;6.994;2023-06-10T12:26:36;7.47;;;6.77;;
4323;SDS011;2175;51.018;6.994;2023-06-10T12:29:15;6.93;;;6.30;;
4323;SDS011;2175;51.018;6.994;2023-06-10T12:31:53;8.10;;;6.47;;
4323;SDS011;2175;51.018;6.994;2023-06-10T12:34:20;9.73;;;6.53;;
4323;SDS011;2175;51.018;6.994;2023-06-10T12:37:04;7.77;;;6.50;;
4323;SDS011;2175;51.018;6.994;2023-06-10T12:39:39;6.70;;;5.83;;
4323;SDS011;2175;51.018;6.994;2023-06-10T12:42:06;7.50;;;6.80;;
4323;SDS011;2175;51.018;6.994;2023-06-10T12:44:35;9.87;;;6.20;;
4323;SDS011;2175;51.018;6.994;2023-06-10T12:47:10;11.47;;;6.50;;
4323;SDS011;2175;51.018;6.994;2023-06-10T12:49:39;9.50;;;7.23;;
4323;SDS011;2175;51.018;6.994;2023-06-10T12:52:05;8.67;;;6.80;;
4323;SDS011;2175;51.018;6.994;2023-06-10T12:54:31;10.20;;;6.60;;
4323;SDS011;2175;51.018;6.994;2023-06-10T12:56:57;7.60;;;6.20;;
4323;SDS011;2175;51.018;6.994;2023-06-10T12:59:23;7.20;;;6.20;;
4323;SDS011;2175;51.018;6.994;2023-06-10T13:01:52;13.97;;;5.90;;
4323;SDS011;2175;51.018;6.994;2023-06-10T13:04:19;9.40;;;6.73;;
4323;SDS011;2175;51.018;6.994;2023-06-10T13:06:46;6.97;;;6.00;;
4323;SDS011;2175;51.018;6.994;2023-06-10T13:09:15;6.63;;;6.00;;
4323;SDS011;2175;51.018;6.994;2023-06-10T13:11:41;8.30;;;5.80;;
4323;SDS011;2175;51.018;6.994;2023-06-10T13:14:08;7.93;;;6.70;;
4323;SDS011;2175;51.018;6.994;2023-06-10T13:16:35;10.13;;;6.17;;
4323;SDS011;2175;51.018;6.994;2023-06-10T13:19:03;6.53;;;5.80;;
4323;SDS011;2175;51.018;6.994;2023-06-10T13:21:30;8.67;;;6.17;;
4323;SDS011;2175;51.018;6.994;2023-06-10T13:23:57;8.47;;;5.83;;
4323;SDS011;2175;51.018;6.994;2023-06-10T13:26:22;6.60;;;6.00;;
4323;SDS011;2175;51.018;6.994;2023-06-10T13:28:48;7.60;;;6.00;;
4323;SDS011;2175;51.018;6.994;2023-06-10T13:31:14;8.37;;;6.30;;
4323;SDS011;2175;51.018;6.994;2023-06-10T13:33:40;10.30;;;5.43;;
4323;SDS011;2175;51.018;6.994;2023-06-10T13:36:05;7.40;;;5.40;;
4323;SDS011;2175;51.018;6.994;2023-06-10T13:38:31;6.63;;;5.80;;
4323;SDS011;2175;51.018;6.994;2023-06-10T13:40:56;8.90;;;5.70;;
4323;SDS011;2175;51.018;6.994;2023-06-10T13:43:22;12.83;;;5.53;;
4323;SDS011;2175;51.018;6.994;2023-06-10T13:45:48;7.70;;;5.17;;
4323;SDS011;2175;51.018;6.994;2023-06-10T13:48:14;6.73;;;5.10;;
4323;SDS011;2175;51.018;6.994;2023-06-10T13:50:39;5.93;;;5.33;;
4323;SDS011;2175;51.018;6.994;2023-06-10T13:53:05;8.40;;;5.60;;
4323;SDS011;2175;51.018;6.994;2023-06-10T13:55:31;8.00;;;5.20;;
4323;SDS011;2175;51.018;6.994;2023-06-10T13:57:56;6.87;;;5.40;;
4323;SDS011;2175;51.018;6.994;2023-06-10T14:00:22;7.20;;;5.80;;
4323;SDS011;2175;51.018;6.994;2023-06-10T14:02:47;8.37;;;5.90;;
4323;SDS011;2175;51.018;6.994;2023-06-10T14:05:13;8.73;;;5.30;;
4323;SDS011;2175;51.018;6.994;2023-06-10T14:07:39;8.70;;;5.30;;
4323;SDS011;2175;51.018;6.994;2023-06-10T14:10:05;6.07;;;5.43;;
4323;SDS011;2175;51.018;6.994;2023-06-10T14:12:33;6.17;;;5.57;;
4323;SDS011;2175;51.018;6.994;2023-06-10T14:14:58;7.57;;;5.73;;
4323;SDS011;2175;51.018;6.994;2023-06-10T14:17:24;6.77;;;5.40;;
4323;SDS011;2175;51.018;6.994;2023-06-10T14:19:50;5.03;;;4.53;;
4323;SDS011;2175;51.018;6.994;2023-06-10T14:22:15;6.00;;;5.30;;
4323;SDS011;2175;51.018;6.994;2023-06-10T14:24:41;7.93;;;5.43;;
4323;SDS011;2175;51.018;6.994;2023-06-10T14:27:06;5.80;;;5.20;;
4323;SDS011;2175;51.018;6.994;2023-06-10T14:29:32;9.30;;;5.10;;
4323;SDS011;2175;51.018;6.994;2023-06-10T14:31:58;11.00;;;6.03;;
4323;SDS011;2175;51.018;6.994;2023-06-10T14:34:24;5.80;;;5.07;;
4323;SDS011;2175;51.018;6.994;2023-06-10T14:36:54;7.93;;;5.40;;
4323;SDS011;2175;51.018;6.994;2023-06-10T14:39:20;9.33;;;5.70;;
4323;SDS011;2175;51.018;6.994;2023-06-10T14:41:46;6.20;;;5.60;;
4323;SDS011;2175;51.018;6.994;2023-06-10T14:44:11;6.23;;;5.10;;
4323;SDS011;2175;51.018;6.994;2023-06-10T14:46:37;5.63;;;5.10;;
4323;SDS011;2175;51.018;6.994;2023-06-10T14:49:02;6.23;;;5.27;;
4323;SDS011;2175;51.018;6.994;2023-06-10T14:51:28;5.40;;;4.70;;
4323;SDS011;2175;51.018;6.994;2023-06-10T14:53:54;7.53;;;5.23;;
4323;SDS011;2175;51.018;6.994;2023-06-10T14:56:19;7.20;;;5.13;;
4323;SDS011;2175;51.018;6.994;2023-06-10T14:58:45;6.07;;;4.83;;
4323;SDS011;2175;51.018;6.994;2023-06-10T15:01:10;7.40;;;4.90;;
4323;SDS011;2175;51.018;6.994;2023-06-10T15:03:36;7.20;;;4.97;;
4323;SDS011;2175;51.018;6.994;2023-06-10T15:06:01;7.80;;;5.13;;
4323;SDS011;2175;51.018;6.994;2023-06-10T15:08:28;8.53;;;5.30;;
4323;SDS011;2175;51.018;6.994;2023-06-10T15:10:53;8.60;;;5.60;;
4323;SDS011;2175;51.018;6.994;2023-06-10T15:13:19;5.67;;;4.97;;
4323;SDS011;2175;51.018;6.994;2023-06-10T15:15:45;5.77;;;5.20;;
4323;SDS011;2175;51.018;6.994;2023-06-10T15:18:11;6.17;;;5.20;;
4323;SDS011;2175;51.018;6.994;2023-06-10T15:20:36;6.93;;;5.50;;
4323;SDS011;2175;51.018;6.994;2023-06-10T15:23:02;5.73;;;5.13;;